createdAt,value
2022-11-03T00:00:51.167Z,8.32
2022-11-03T00:03:37.240Z,9.32
2022-11-03T00:06:22.775Z,8.73
2022-11-03T00:09:11.390Z,11.80
2022-11-03T00:11:56.732Z,8.77
2022-11-03T00:14:42.274Z,6.72
2022-11-03T00:17:27.938Z,9.13
2022-11-03T00:20:13.259Z,9.35
2022-11-03T00:22:58.760Z,11.25
2022-11-03T00:25:44.237Z,10.18
2022-11-03T00:28:32.860Z,10.35
2022-11-03T00:31:18.365Z,10.45
2022-11-03T00:34:05.098Z,9.35
2022-11-03T00:36:50.242Z,8.57
2022-11-03T00:39:35.855Z,9.25
2022-11-03T00:42:21.462Z,8.55
2022-11-03T00:45:08.071Z,6.57
2022-11-03T00:48:15.066Z,9.75
2022-11-03T00:51:24.327Z,9.35
2022-11-03T00:54:09.922Z,9.60
2022-11-03T00:56:55.183Z,10.25
2022-11-03T00:59:40.882Z,11.57
2022-11-03T01:02:26.373Z,11.52
2022-11-03T01:05:30.362Z,9.77
2022-11-03T01:08:15.674Z,9.30
2022-11-03T01:11:35.126Z,7.32
2022-11-03T01:14:20.482Z,12.57
2022-11-03T01:17:11.121Z,10.30
2022-11-03T01:19:56.585Z,8.25
2022-11-03T01:22:42.037Z,12.65
2022-11-03T01:25:27.632Z,10.55
2022-11-03T01:28:12.994Z,8.02
2022-11-03T01:31:07.075Z,9.60
2022-11-03T01:33:55.272Z,8.50
2022-11-03T01:36:40.754Z,8.75
2022-11-03T01:39:26.308Z,10.23
2022-11-03T01:42:14.463Z,7.97
2022-11-03T01:45:00.046Z,8.38
2022-11-03T01:47:47.257Z,11.45
2022-11-03T01:50:32.443Z,10.40
2022-11-03T01:53:19.193Z,7.35
2022-11-03T01:56:05.521Z,7.50
2022-11-03T01:58:54.157Z,7.03
2022-11-03T02:01:39.554Z,6.32
2022-11-03T02:04:29.571Z,7.03
2022-11-03T02:07:26.865Z,8.85
2022-11-03T02:10:12.596Z,8.80
2022-11-03T02:12:58.593Z,8.50
2022-11-03T02:15:45.311Z,8.63
2022-11-03T02:18:34.345Z,8.30
2022-11-03T02:21:19.723Z,7.07
2022-11-03T02:24:23.783Z,6.63
2022-11-03T02:27:09.157Z,6.43
2022-11-03T02:29:54.912Z,6.53
2022-11-03T02:33:13.850Z,7.38
2022-11-03T02:36:15.653Z,5.78
2022-11-03T02:39:04.208Z,7.57
2022-11-03T02:41:53.108Z,8.07
2022-11-03T02:44:39.811Z,9.82
2022-11-03T02:47:26.705Z,9.25
2022-11-03T02:50:13.500Z,5.68
2022-11-03T02:52:59.111Z,7.38
2022-11-03T02:56:00.836Z,8.15
2022-11-03T02:58:59.348Z,8.68
2022-11-03T03:01:56.471Z,8.23
2022-11-03T03:04:46.925Z,8.93
2022-11-03T03:07:36.337Z,10.15
2022-11-03T03:10:25.704Z,7.45
2022-11-03T03:13:14.865Z,8.18
2022-11-03T03:16:18.309Z,6.32
2022-11-03T03:19:22.941Z,8.20
2022-11-03T03:22:31.904Z,7.05
2022-11-03T03:25:38.762Z,8.15
2022-11-03T03:28:36.637Z,6.05
2022-11-03T03:31:24.374Z,9.23
2022-11-03T03:34:31.560Z,8.23
2022-11-03T03:37:17.530Z,8.00
2022-11-03T03:40:08.605Z,5.65
2022-11-03T03:42:54.632Z,8.40
2022-11-03T03:45:43.153Z,8.38
2022-11-03T03:48:28.520Z,8.63
2022-11-03T03:51:15.582Z,6.68
2022-11-03T03:54:01.564Z,6.65
2022-11-03T03:57:07.043Z,8.43
2022-11-03T03:59:52.563Z,7.22
2022-11-03T04:02:38.172Z,8.10
2022-11-03T04:05:23.759Z,6.97
2022-11-03T04:08:09.301Z,6.38
2022-11-03T04:11:13.368Z,5.30
2022-11-03T04:14:17.272Z,6.47
2022-11-03T04:17:21.164Z,6.63
2022-11-03T04:20:31.238Z,6.53
2022-11-03T04:23:17.487Z,6.47
2022-11-03T04:26:04.516Z,7.10
2022-11-03T04:28:51.641Z,7.47
2022-11-03T04:31:37.450Z,5.68
2022-11-03T04:34:24.166Z,7.03
2022-11-03T04:37:12.927Z,6.65
2022-11-03T04:40:01.014Z,7.68
2022-11-03T04:42:47.582Z,5.70
2022-11-03T04:45:38.277Z,5.88
2022-11-03T04:48:24.832Z,5.75
2022-11-03T04:51:18.448Z,8.37
2022-11-03T04:54:06.771Z,6.93
2022-11-03T04:56:52.799Z,8.93
2022-11-03T04:59:38.272Z,5.40
2022-11-03T05:02:24.050Z,6.90
2022-11-03T05:05:21.487Z,5.32
2022-11-03T05:08:09.335Z,6.43
2022-11-03T05:10:55.333Z,7.75
2022-11-03T05:13:40.634Z,5.80
2022-11-03T05:16:26.361Z,5.15
2022-11-03T05:19:20.929Z,7.60
2022-11-03T05:25:02.540Z,4.40
2022-11-03T05:27:47.875Z,8.00
2022-11-03T05:30:33.526Z,7.00
2022-11-03T05:33:32.024Z,7.75
2022-11-03T05:36:21.787Z,8.00
2022-11-03T05:39:28.884Z,6.05
2022-11-03T05:42:23.592Z,6.75
2022-11-03T05:48:34.465Z,5.95
2022-11-03T05:51:23.085Z,8.38
2022-11-03T05:54:19.834Z,8.15
2022-11-03T05:57:13.945Z,8.55
2022-11-03T06:00:00.203Z,7.70
2022-11-03T06:02:46.742Z,6.97
2022-11-03T06:05:34.379Z,7.18
2022-11-03T06:08:33.590Z,9.95
2022-11-03T06:11:28.422Z,6.80
2022-11-03T06:14:26.561Z,11.88
2022-11-03T06:17:22.297Z,8.27
2022-11-03T06:20:16.327Z,9.23
2022-11-03T06:23:02.271Z,9.27
2022-11-03T06:25:48.851Z,6.50
2022-11-03T06:28:37.465Z,7.40
2022-11-03T06:31:32.969Z,7.00
2022-11-03T06:34:47.088Z,7.72
2022-11-03T06:37:34.218Z,7.05
2022-11-03T06:40:19.831Z,7.32
2022-11-03T06:43:39.661Z,7.28
2022-11-03T06:46:26.390Z,8.05
2022-11-03T06:49:47.942Z,8.40
2022-11-03T06:52:37.745Z,7.15
2022-11-03T06:55:34.277Z,6.68
2022-11-03T06:58:28.512Z,10.88
2022-11-03T07:01:21.775Z,7.38
2022-11-03T07:04:20.318Z,8.13
2022-11-03T07:07:05.883Z,9.20
2022-11-03T07:09:51.168Z,8.93
2022-11-03T07:12:36.717Z,7.80
2022-11-03T07:15:32.472Z,9.73
2022-11-03T07:18:21.027Z,9.52
2022-11-03T07:21:26.102Z,7.50
2022-11-03T07:24:22.259Z,7.55
2022-11-03T07:27:21.928Z,9.98
2022-11-03T07:30:22.780Z,8.77
2022-11-03T07:33:26.537Z,7.50
2022-11-03T07:36:18.650Z,9.32
2022-11-03T07:39:04.166Z,8.25
2022-11-03T07:41:50.355Z,8.70
2022-11-03T07:44:35.674Z,6.75
2022-11-03T07:47:25.828Z,8.13
2022-11-03T07:50:15.743Z,8.70
2022-11-03T07:53:00.950Z,11.15
2022-11-03T07:55:46.945Z,7.90
2022-11-03T07:58:39.026Z,10.02
2022-11-03T08:01:30.914Z,8.57
2022-11-03T08:04:25.415Z,9.55
2022-11-03T08:09:56.451Z,7.50
2022-11-03T08:12:42.034Z,5.72
2022-11-03T08:15:27.404Z,6.72
2022-11-03T08:18:12.968Z,7.47
2022-11-03T08:20:58.468Z,5.88
2022-11-03T08:23:47.382Z,7.40
2022-11-03T08:26:33.090Z,5.63
2022-11-03T08:29:18.875Z,6.93
2022-11-03T08:32:04.737Z,5.55
2022-11-03T08:34:50.066Z,9.00
2022-11-03T08:37:35.594Z,5.45
2022-11-03T08:40:21.351Z,7.00
2022-11-03T08:43:06.783Z,6.75
2022-11-03T08:45:53.763Z,7.10
2022-11-03T08:48:39.254Z,7.95
2022-11-03T08:51:24.931Z,8.10
2022-11-03T08:54:10.530Z,7.75
2022-11-03T08:56:55.956Z,7.10
2022-11-03T08:59:41.557Z,9.18
2022-11-03T09:02:27.194Z,8.05
2022-11-03T09:05:13.441Z,7.10
2022-11-03T09:11:05.216Z,5.50
2022-11-03T09:13:50.692Z,7.00
2022-11-03T09:16:36.018Z,7.53
2022-11-03T09:19:21.656Z,5.70
2022-11-03T09:22:06.870Z,7.18
2022-11-03T09:24:52.511Z,6.38
2022-11-03T09:27:37.682Z,7.28
2022-11-03T09:30:23.076Z,7.00
2022-11-03T09:33:08.447Z,9.45
2022-11-03T09:35:53.911Z,6.93
2022-11-03T09:38:39.396Z,6.95
2022-11-03T09:41:28.053Z,8.23
2022-11-03T09:44:21.520Z,9.85
2022-11-03T09:47:07.480Z,8.10
2022-11-03T09:49:53.415Z,7.38
2022-11-03T09:52:38.750Z,6.90
2022-11-03T09:55:26.523Z,7.15
2022-11-03T09:58:16.968Z,8.18
2022-11-03T10:01:03.333Z,8.82
2022-11-03T10:03:49.212Z,8.77
2022-11-03T10:06:34.645Z,6.78
2022-11-03T10:09:23.601Z,8.10
2022-11-03T10:12:09.958Z,7.40
2022-11-03T10:14:55.463Z,7.47
2022-11-03T10:17:41.838Z,9.00
2022-11-03T10:20:29.469Z,8.70
2022-11-03T10:23:14.688Z,7.13
2022-11-03T10:26:10.176Z,8.02
2022-11-03T10:29:08.887Z,6.05
2022-11-03T10:31:57.128Z,6.03
2022-11-03T10:34:42.706Z,6.65
2022-11-03T10:37:28.429Z,7.30
2022-11-03T10:40:47.897Z,6.82
2022-11-03T10:43:33.669Z,11.27
2022-11-03T10:46:44.561Z,7.15
2022-11-03T10:49:30.405Z,7.10
2022-11-03T10:52:20.939Z,7.07
2022-11-03T10:55:06.756Z,8.35
2022-11-03T10:57:55.529Z,9.57
2022-11-03T11:00:42.798Z,7.57
2022-11-03T11:03:28.213Z,6.38
2022-11-03T11:06:26.661Z,6.88
2022-11-03T11:09:15.713Z,7.93
2022-11-03T11:12:07.232Z,6.70
2022-11-03T11:14:54.862Z,6.20
2022-11-03T11:17:46.418Z,6.90
2022-11-03T11:20:43.564Z,6.70
2022-11-03T11:23:28.887Z,8.85
2022-11-03T11:26:17.739Z,6.60
2022-11-03T11:29:09.614Z,5.72
2022-11-03T11:31:55.100Z,6.80
2022-11-03T11:34:40.643Z,9.27
2022-11-03T11:37:25.846Z,7.10
2022-11-03T11:40:31.777Z,8.25
2022-11-03T11:43:19.840Z,6.00
2022-11-03T11:46:33.093Z,8.07
2022-11-03T11:49:18.744Z,7.00
2022-11-03T11:52:04.521Z,7.82
2022-11-03T11:54:49.814Z,7.78
2022-11-03T11:57:35.605Z,8.85
2022-11-03T12:00:29.392Z,9.48
2022-11-03T12:03:15.720Z,7.90
2022-11-03T12:06:01.688Z,8.93
2022-11-03T12:08:47.220Z,7.15
2022-11-03T12:11:53.878Z,7.95
2022-11-03T12:14:41.190Z,7.97
2022-11-03T12:17:26.876Z,11.25
2022-11-03T12:20:35.948Z,8.50
2022-11-03T12:23:37.534Z,8.20
2022-11-03T12:26:29.400Z,10.27
2022-11-03T12:29:14.891Z,9.75
2022-11-03T12:32:00.365Z,7.88
2022-11-03T12:34:45.924Z,8.07
2022-11-03T12:37:31.409Z,9.50
2022-11-03T12:40:17.161Z,9.93
2022-11-03T12:43:02.520Z,9.77
2022-11-03T12:45:48.200Z,12.23
2022-11-03T12:48:33.493Z,10.40
2022-11-03T12:51:21.042Z,11.55
2022-11-03T12:54:06.449Z,9.55
2022-11-03T12:56:53.269Z,10.77
2022-11-03T12:59:38.551Z,10.13
2022-11-03T13:02:23.994Z,12.52
2022-11-03T13:05:09.869Z,10.73
2022-11-03T13:07:55.086Z,12.98
2022-11-03T13:10:40.900Z,8.95
2022-11-03T13:13:27.064Z,11.20
2022-11-03T13:16:12.344Z,10.48
2022-11-03T13:18:57.794Z,10.68
2022-11-03T13:21:42.996Z,11.02
2022-11-03T13:24:28.391Z,9.10
2022-11-03T13:27:14.167Z,9.50
2022-11-03T13:29:59.311Z,9.95
2022-11-03T13:32:45.205Z,9.32
2022-11-03T13:35:30.801Z,11.93
2022-11-03T13:38:15.979Z,11.38
2022-11-03T13:41:08.082Z,14.80
2022-11-03T13:43:54.413Z,8.27
2022-11-03T13:46:39.913Z,11.20
2022-11-03T13:52:30.974Z,9.60
2022-11-03T14:01:27.844Z,10.80
2022-11-03T14:07:19.522Z,12.15
2022-11-03T14:10:04.964Z,7.82
2022-11-03T14:12:50.374Z,12.07
2022-11-03T14:15:35.879Z,9.13
2022-11-03T14:18:21.158Z,11.80
2022-11-03T14:21:06.821Z,10.35
2022-11-03T14:23:52.146Z,13.98
2022-11-03T14:26:42.547Z,8.20
2022-11-03T14:29:28.267Z,14.18
2022-11-03T14:32:13.838Z,11.93
2022-11-03T14:34:59.275Z,10.23
2022-11-03T14:37:45.096Z,12.80
2022-11-03T14:40:48.842Z,9.85
2022-11-03T14:43:35.247Z,13.45
2022-11-03T14:46:20.743Z,8.48
2022-11-03T14:49:06.294Z,11.35
2022-11-03T14:51:51.882Z,13.57
2022-11-03T14:54:37.657Z,17.70
2022-11-03T14:57:23.150Z,18.42
2022-11-03T15:00:10.425Z,14.27
2022-11-03T15:02:56.077Z,15.65
2022-11-03T15:05:44.183Z,12.55
2022-11-03T15:08:30.996Z,15.75
2022-11-03T15:11:16.405Z,14.27
2022-11-03T15:14:02.760Z,13.85
2022-11-03T15:16:48.328Z,12.82
2022-11-03T15:19:33.649Z,18.00
2022-11-03T15:22:19.531Z,13.00
2022-11-03T15:25:13.112Z,14.52
2022-11-03T15:27:58.518Z,18.00
2022-11-03T15:30:43.968Z,14.20
2022-11-03T15:33:29.320Z,23.55
2022-11-03T15:36:14.956Z,32.10
2022-11-03T15:39:00.643Z,20.13
2022-11-03T15:41:45.791Z,14.15
2022-11-03T15:44:31.295Z,14.07
2022-11-03T15:47:16.699Z,13.25
2022-11-03T15:50:02.362Z,14.18
2022-11-03T15:52:47.815Z,16.95
2022-11-03T15:55:33.342Z,15.63
2022-11-03T15:58:18.706Z,12.55
2022-11-03T16:01:04.452Z,17.35
2022-11-03T16:03:50.111Z,14.80
2022-11-03T16:07:01.797Z,11.95
2022-11-03T16:09:40.925Z,14.65
2022-11-03T16:12:26.413Z,10.98
2022-11-03T16:15:11.776Z,10.93
2022-11-03T16:18:02.722Z,17.73
2022-11-03T16:20:48.339Z,13.30
2022-11-03T16:23:33.828Z,10.80
2022-11-03T16:26:21.911Z,13.05
2022-11-03T16:29:07.135Z,12.70
2022-11-03T16:31:53.496Z,14.98
2022-11-03T16:34:38.795Z,15.35
2022-11-03T16:37:27.553Z,11.98
2022-11-03T16:40:18.747Z,13.60
2022-11-03T16:43:05.161Z,12.77
2022-11-03T16:45:51.067Z,13.77
2022-11-03T16:48:36.382Z,12.60
2022-11-03T16:51:22.265Z,17.45
2022-11-03T16:54:07.547Z,16.60
2022-11-03T16:56:54.809Z,12.48
2022-11-03T16:59:40.520Z,16.60
2022-11-03T17:02:28.085Z,14.10
2022-11-03T17:05:15.621Z,12.65
2022-11-03T17:08:01.044Z,13.27
2022-11-03T17:10:46.621Z,11.05
2022-11-03T17:13:32.276Z,11.77
2022-11-03T17:16:17.743Z,14.80
2022-11-03T17:19:03.078Z,18.60
2022-11-03T17:21:48.699Z,16.15
2022-11-03T17:24:34.030Z,17.73
2022-11-03T17:27:38.198Z,14.38
2022-11-03T17:30:28.165Z,13.98
2022-11-03T17:33:16.790Z,14.45
2022-11-03T17:36:02.407Z,13.82
2022-11-03T17:38:48.047Z,14.15
2022-11-03T17:41:36.064Z,14.23
2022-11-03T17:44:21.455Z,19.85
2022-11-03T17:47:06.948Z,15.13
2022-11-03T17:49:52.467Z,20.38
2022-11-03T17:52:38.099Z,17.35
2022-11-03T17:55:29.437Z,18.35
2022-11-03T17:58:15.113Z,21.67
2022-11-03T18:01:02.099Z,22.02
2022-11-03T18:03:47.688Z,18.52
2022-11-03T18:06:33.391Z,22.52
2022-11-03T18:09:18.732Z,18.50
2022-11-03T18:12:22.577Z,22.02
2022-11-03T18:15:18.603Z,15.77
2022-11-03T18:18:14.022Z,16.20
2022-11-03T18:20:59.699Z,16.40
2022-11-03T18:23:45.065Z,20.30
2022-11-03T18:26:30.524Z,17.05
2022-11-03T18:29:16.034Z,16.63
2022-11-03T18:32:03.780Z,16.48
2022-11-03T18:34:49.550Z,15.77
2022-11-03T18:37:35.038Z,19.02
2022-11-03T18:40:20.562Z,18.85
2022-11-03T18:43:17.071Z,17.08
2022-11-03T18:46:02.708Z,21.15
2022-11-03T18:48:48.342Z,14.88
2022-11-03T18:51:34.086Z,16.13
2022-11-03T18:54:22.125Z,12.90
2022-11-03T18:57:11.011Z,13.68
2022-11-03T18:59:56.810Z,15.82
2022-11-03T19:02:42.458Z,14.48
2022-11-03T19:05:29.747Z,13.98
2022-11-03T19:08:27.119Z,16.40
2022-11-03T19:11:13.644Z,14.25
2022-11-03T19:13:59.699Z,13.30
2022-11-03T19:17:02.141Z,13.43
2022-11-03T19:19:53.377Z,16.30
2022-11-03T19:22:39.427Z,15.68
2022-11-03T19:25:25.441Z,16.77
2022-11-03T19:28:14.694Z,18.38
2022-11-03T19:31:00.802Z,14.07
2022-11-03T19:33:48.014Z,15.20
2022-11-03T19:36:33.366Z,12.40
2022-11-03T19:39:30.572Z,15.63
2022-11-03T19:42:29.397Z,15.75
2022-11-03T19:45:17.335Z,20.05
2022-11-03T19:51:13.083Z,13.40
2022-11-03T19:53:58.595Z,16.88
2022-11-03T19:56:46.503Z,22.48
2022-11-03T19:59:31.733Z,18.23
2022-11-03T20:02:17.592Z,21.73
2022-11-03T20:05:02.933Z,17.08
2022-11-03T20:07:48.673Z,13.25
2022-11-03T20:10:36.035Z,13.82
2022-11-03T20:13:24.690Z,10.73
2022-11-03T20:16:15.146Z,9.68
2022-11-03T20:19:00.879Z,9.30
2022-11-03T20:21:46.489Z,9.05
2022-11-03T20:24:32.582Z,7.88
2022-11-03T20:27:20.852Z,9.50
2022-11-03T20:30:06.637Z,7.60
2022-11-03T20:32:52.228Z,6.60
2022-11-03T20:35:38.140Z,6.40
2022-11-03T20:38:26.862Z,7.72
2022-11-03T20:41:15.348Z,6.82
2022-11-03T20:44:00.900Z,5.05
2022-11-03T20:46:46.462Z,5.70
2022-11-03T20:49:31.920Z,3.75
2022-11-03T20:52:17.518Z,4.82
2022-11-03T20:55:10.371Z,2.40
2022-11-03T20:57:55.795Z,2.55
2022-11-03T21:00:42.335Z,4.50
2022-11-03T21:03:53.496Z,2.33
2022-11-03T21:06:33.770Z,2.28
2022-11-03T21:09:20.197Z,1.50
2022-11-03T21:12:10.419Z,3.55
2022-11-03T21:15:14.717Z,2.58
2022-11-03T21:18:18.594Z,2.55
2022-11-03T21:21:03.975Z,2.08
2022-11-03T21:23:49.340Z,2.40
2022-11-03T21:26:36.668Z,1.67
2022-11-03T21:29:39.169Z,1.92
2022-11-03T21:32:27.573Z,1.83
2022-11-03T21:35:19.337Z,4.38
2022-11-03T21:38:05.884Z,1.65
2022-11-03T21:41:11.860Z,2.03
2022-11-03T21:44:15.490Z,1.92
2022-11-03T21:47:00.804Z,0.40
2022-11-03T21:49:46.289Z,1.85
2022-11-03T21:52:32.130Z,0.50
2022-11-03T21:55:17.448Z,1.77
2022-11-03T21:58:03.765Z,1.50
2022-11-03T22:00:49.090Z,0.82
2022-11-03T22:03:35.262Z,0.73
2022-11-03T22:06:20.635Z,1.02
2022-11-03T22:09:06.366Z,0.98
2022-11-03T22:11:52.896Z,1.30
2022-11-03T22:14:56.885Z,1.92
2022-11-03T22:17:44.744Z,0.40
2022-11-03T22:20:48.890Z,0.68
2022-11-03T22:23:52.585Z,0.52
2022-11-03T22:26:56.112Z,0.47
2022-11-03T22:29:59.909Z,0.63
2022-11-03T22:32:49.563Z,1.10
2022-11-03T22:35:53.516Z,0.70
2022-11-03T22:38:57.447Z,0.40
2022-11-03T22:42:06.029Z,0.68
2022-11-03T22:45:11.104Z,0.40
2022-11-03T22:47:57.589Z,0.60
2022-11-03T22:50:43.823Z,0.52
2022-11-03T22:53:52.771Z,0.68
2022-11-03T22:56:39.582Z,0.50
2022-11-03T22:59:25.187Z,0.65
2022-11-03T23:02:11.018Z,0.50
2022-11-03T23:04:56.557Z,0.25
2022-11-03T23:07:42.179Z,0.55
2022-11-03T23:10:28.551Z,1.15
2022-11-03T23:13:14.040Z,1.13
2022-11-03T23:15:59.577Z,0.55
2022-11-03T23:19:04.169Z,0.55
2022-11-03T23:21:51.701Z,0.70
2022-11-03T23:24:55.760Z,1.05
2022-11-03T23:27:41.072Z,1.95
2022-11-03T23:30:26.195Z,0.30
2022-11-03T23:33:11.841Z,0.30
2022-11-03T23:35:57.228Z,1.38
2022-11-03T23:38:43.349Z,0.73
2022-11-03T23:41:29.372Z,0.70
2022-11-03T23:44:16.445Z,0.68
2022-11-03T23:47:20.495Z,0.57
2022-11-03T23:50:06.309Z,1.17
2022-11-03T23:52:51.822Z,0.85
2022-11-03T23:56:00.348Z,0.50
2022-11-03T23:58:49.442Z,1.85
